Time;durP1;ratioP1;P1;durP2;ratioP2;P2;SDS_P1;SDS_P2;PMS_P1;PMS_P2;Temp;Humidity;BMP_temperature;BMP_pressure;BME280_temperature;BME280_humidity;BME280_pressure;Samples;Min_cycle;Max_cycle;Signal;HPM_P1;HPM_P2
2022/03/07 00:01:44;;;;;;;7.20;2.17;;;;;;;;;;5035281;28;20017;-82
2022/03/07 00:04:14;;;;;;;5.00;1.83;;;;;;;;;;5042564;28;20100;-80
2022/03/07 00:06:39;;;;;;;5.68;2.17;;;;;;;;;;5042126;28;20025;-82
2022/03/07 00:11:40;;;;;;;4.35;2.00;;;;;;;;;;5685882;23;20050;-83
2022/03/07 00:14:05;;;;;;;5.80;1.98;;;;;;;;;;5018630;28;20006;-83
2022/03/07 00:52:47;;;;;;;4.45;2.38;;;;;;;;;;5841785;22;20054;-83
2022/03/07 00:57:47;;;;;;;3.30;1.92;;;;;;;;;;6014409;23;20933;-82
2022/03/07 01:00:13;;;;;;;4.22;2.10;;;;;;;;;;5031271;28;20101;-82
2022/03/07 01:02:38;;;;;;;3.97;1.92;;;;;;;;;;5053026;28;20018;-82
2022/03/07 01:05:04;;;;;;;6.35;2.83;;;;;;;;;;5050570;28;20075;-82
2022/03/07 01:07:29;;;;;;;5.97;2.30;;;;;;;;;;5049332;28;20361;-82
2022/03/07 01:09:54;;;;;;;4.43;2.00;;;;;;;;;;5044894;28;20029;-81
2022/03/07 01:12:20;;;;;;;4.45;2.40;;;;;;;;;;5026712;28;20043;-81
2022/03/07 01:14:45;;;;;;;5.97;2.25;;;;;;;;;;5013957;28;20018;-79
2022/03/07 01:17:10;;;;;;;4.22;2.20;;;;;;;;;;5002473;28;20017;-79
2022/03/07 01:19:35;;;;;;;6.93;2.25;;;;;;;;;;5003900;28;20033;-80
2022/03/07 01:22:00;;;;;;;5.72;2.30;;;;;;;;;;5021283;28;20024;-80
2022/03/07 01:24:26;;;;;;;4.38;2.22;;;;;;;;;;5021431;28;20064;-81
2022/03/07 01:26:51;;;;;;;3.90;2.28;;;;;;;;;;5024428;28;20046;-80
2022/03/07 01:29:19;;;;;;;5.70;2.30;;;;;;;;;;5034748;28;20061;-81
2022/03/07 01:31:45;;;;;;;5.00;2.50;;;;;;;;;;5052349;28;20041;-81
2022/03/07 01:34:10;;;;;;;5.90;2.42;;;;;;;;;;5056883;28;19997;-82
2022/03/07 01:36:39;;;;;;;5.15;2.20;;;;;;;;;;5060844;28;20049;-83
2022/03/07 01:39:04;;;;;;;5.45;2.45;;;;;;;;;;5289507;23;20176;-81
2022/03/07 01:41:29;;;;;;;5.97;2.60;;;;;;;;;;5041000;28;20030;-81
2022/03/07 01:43:55;;;;;;;4.15;2.63;;;;;;;;;;5041202;28;20466;-82
2022/03/07 01:46:20;;;;;;;10.30;2.75;;;;;;;;;;5023674;28;20013;-83
2022/03/07 01:48:48;;;;;;;7.57;3.17;;;;;;;;;;5027872;28;20013;-83
2022/03/07 01:51:16;;;;;;;4.00;2.03;;;;;;;;;;5043519;28;20038;-82
2022/03/07 01:53:42;;;;;;;4.07;2.25;;;;;;;;;;5060070;28;20079;-83
2022/03/07 01:56:08;;;;;;;6.38;2.25;;;;;;;;;;5043203;28;20044;-84
2022/03/07 01:58:34;;;;;;;6.95;2.50;;;;;;;;;;5038838;28;20026;-82
2022/03/07 02:01:06;;;;;;;6.28;2.38;;;;;;;;;;5038142;28;20025;-84
2022/03/07 02:03:35;;;;;;;4.78;2.38;;;;;;;;;;5057447;28;20005;-83
2022/03/07 02:11:12;;;;;;;4.70;2.38;;;;;;;;;;5484384;22;20099;-81
2022/03/07 02:13:38;;;;;;;4.80;2.33;;;;;;;;;;5012798;28;20071;-82
2022/03/07 02:16:11;;;;;;;5.88;2.50;;;;;;;;;;5014543;28;20056;-81
2022/03/07 02:18:37;;;;;;;6.03;2.03;;;;;;;;;;5013189;28;20022;-82
2022/03/07 02:21:14;;;;;;;5.28;2.55;;;;;;;;;;5037731;28;20001;-82
2022/03/07 02:23:39;;;;;;;4.70;2.40;;;;;;;;;;5028768;28;20185;-80
2022/03/07 02:26:23;;;;;;;6.25;2.50;;;;;;;;;;5028816;28;20473;-81
2022/03/07 02:28:48;;;;;;;5.70;2.58;;;;;;;;;;5027382;28;20018;-81
2022/03/07 02:36:23;;;;;;;7.90;3.03;;;;;;;;;;5443944;22;20102;-81
2022/03/07 02:38:55;;;;;;;4.22;2.28;;;;;;;;;;5020852;28;20219;-82
2022/03/07 02:41:20;;;;;;;4.95;2.65;;;;;;;;;;5023066;28;20046;-83
2022/03/07 02:54:09;;;;;;;5.90;3.13;;;;;;;;;;5550738;23;20049;-83
2022/03/07 02:56:55;;;;;;;7.22;3.10;;;;;;;;;;5039417;28;20013;-83
2022/03/07 02:59:20;;;;;;;6.13;2.90;;;;;;;;;;5036660;28;20037;-81
2022/03/07 03:17:19;;;;;;;6.00;2.97;;;;;;;;;;5246878;22;20042;-82
2022/03/07 03:22:20;;;;;;;4.13;2.53;;;;;;;;;;6071063;22;20823;-81
2022/03/07 03:24:45;;;;;;;5.43;2.83;;;;;;;;;;5236497;22;20038;-83
2022/03/07 03:27:11;;;;;;;7.30;2.75;;;;;;;;;;5015388;28;20134;-84
2022/03/07 03:29:36;;;;;;;6.35;3.28;;;;;;;;;;5337148;23;20026;-83
2022/03/07 03:32:02;;;;;;;6.00;2.75;;;;;;;;;;5021320;28;20075;-83
2022/03/07 03:34:27;;;;;;;4.65;2.90;;;;;;;;;;5020893;28;20025;-82
2022/03/07 03:36:53;;;;;;;5.20;2.80;;;;;;;;;;5020382;28;20117;-82
2022/03/07 03:39:18;;;;;;;8.70;3.75;;;;;;;;;;5038653;28;20049;-83
2022/03/07 03:44:18;;;;;;;7.82;3.78;;;;;;;;;;5399442;23;20054;-82
2022/03/07 03:46:44;;;;;;;6.78;3.00;;;;;;;;;;5019201;28;20002;-83
2022/03/07 03:49:09;;;;;;;6.85;3.15;;;;;;;;;;5021249;28;20018;-83
2022/03/07 03:51:37;;;;;;;8.52;3.42;;;;;;;;;;5038788;28;20087;-83
2022/03/07 03:54:03;;;;;;;7.18;3.22;;;;;;;;;;5038815;28;19998;-83
2022/03/07 03:56:30;;;;;;;6.68;3.38;;;;;;;;;;5038803;28;20073;-83
2022/03/07 03:58:56;;;;;;;6.97;3.30;;;;;;;;;;5037848;28;20063;-82
2022/03/07 04:01:21;;;;;;;5.85;3.60;;;;;;;;;;5035210;28;20505;-83
2022/03/07 04:03:49;;;;;;;5.90;2.97;;;;;;;;;;5034599;28;19998;-83
2022/03/07 04:24:15;;;;;;;7.82;3.47;;;;;;;;;;4996819;28;20043;-82
2022/03/07 04:26:41;;;;;;;9.40;4.38;;;;;;;;;;4981806;28;20051;-83
2022/03/07 04:29:12;;;;;;;11.48;4.38;;;;;;;;;;4998900;28;20043;-84
2022/03/07 04:31:44;;;;;;;6.80;3.63;;;;;;;;;;4982917;28;20026;-84
2022/03/07 04:34:12;;;;;;;5.30;3.30;;;;;;;;;;4999076;28;20010;-83
2022/03/07 04:36:39;;;;;;;10.23;3.45;;;;;;;;;;5341695;23;20081;-80
2022/03/07 04:39:04;;;;;;;6.53;2.97;;;;;;;;;;5027846;28;20032;-81
2022/03/07 04:41:30;;;;;;;7.38;3.90;;;;;;;;;;5016808;28;20065;-81
2022/03/07 04:43:55;;;;;;;7.88;3.75;;;;;;;;;;5008068;28;20018;-82
2022/03/07 04:48:56;;;;;;;6.47;3.22;;;;;;;;;;5326481;23;20257;-80
2022/03/07 04:51:23;;;;;;;9.32;3.92;;;;;;;;;;5012966;28;20018;-81
2022/03/07 05:01:36;;;;;;;7.40;3.45;;;;;;;;;;5122089;23;20037;-82
2022/03/07 05:11:49;;;;;;;7.75;3.80;;;;;;;;;;5153659;23;20058;-82
2022/03/07 05:14:15;;;;;;;6.20;3.20;;;;;;;;;;5011068;28;20089;-81
2022/03/07 05:16:40;;;;;;;7.28;3.70;;;;;;;;;;5014198;28;20488;-82
2022/03/07 05:19:05;;;;;;;9.23;3.53;;;;;;;;;;5020186;28;20432;-82
2022/03/07 05:21:31;;;;;;;7.80;3.40;;;;;;;;;;5037382;28;20025;-81
2022/03/07 05:23:56;;;;;;;10.38;3.65;;;;;;;;;;5030738;28;20022;-80
2022/03/07 05:26:24;;;;;;;8.65;3.42;;;;;;;;;;5031282;28;20018;-81
2022/03/07 05:28:49;;;;;;;8.35;3.85;;;;;;;;;;5038271;28;20006;-81
2022/03/07 05:31:15;;;;;;;7.10;3.47;;;;;;;;;;5020926;28;20030;-83
2022/03/07 05:33:42;;;;;;;8.32;3.15;;;;;;;;;;5021813;28;20022;-82
2022/03/07 05:36:08;;;;;;;9.13;3.75;;;;;;;;;;5037240;28;20060;-83
2022/03/07 05:38:34;;;;;;;16.67;4.80;;;;;;;;;;5039911;28;20021;-82
2022/03/07 05:41:00;;;;;;;7.97;4.05;;;;;;;;;;5039526;28;20021;-81
2022/03/07 05:43:25;;;;;;;7.32;4.25;;;;;;;;;;5058376;28;20139;-82
2022/03/07 05:45:51;;;;;;;11.18;4.50;;;;;;;;;;5056795;28;20021;-81
2022/03/07 05:48:16;;;;;;;8.80;4.30;;;;;;;;;;5053546;28;20064;-81
2022/03/07 05:50:41;;;;;;;7.70;4.40;;;;;;;;;;5047994;28;20045;-80
2022/03/07 05:53:07;;;;;;;6.90;3.70;;;;;;;;;;5044584;28;20445;-81
2022/03/07 05:55:32;;;;;;;8.52;4.50;;;;;;;;;;5027981;28;20021;-80
2022/03/07 05:58:02;;;;;;;6.93;4.20;;;;;;;;;;5027979;28;20473;-82
2022/03/07 06:00:28;;;;;;;9.40;4.70;;;;;;;;;;5035956;28;20040;-81
2022/03/07 06:02:53;;;;;;;9.05;3.65;;;;;;;;;;5055959;28;20079;-82
2022/03/07 06:05:19;;;;;;;10.63;4.00;;;;;;;;;;5045089;28;20021;-80
2022/03/07 06:07:44;;;;;;;8.02;4.32;;;;;;;;;;5041599;28;20081;-80
2022/03/07 06:10:10;;;;;;;10.10;4.90;;;;;;;;;;5040128;28;20440;-81
2022/03/07 06:12:35;;;;;;;9.50;4.45;;;;;;;;;;5033171;28;20420;-81
2022/03/07 06:15:04;;;;;;;12.73;5.30;;;;;;;;;;5025881;28;20037;-81
2022/03/07 06:17:29;;;;;;;;;;;;;;;;;;5031281;28;20040;-82
2022/03/07 06:19:55;;;;;;;10.00;4.55;;;;;;;;;;5037662;28;19906;-82
2022/03/07 06:22:20;;;;;;;7.22;4.13;;;;;;;;;;5020567;28;20282;-81
2022/03/07 06:24:45;;;;;;;9.38;4.30;;;;;;;;;;5030525;28;20017;-79
2022/03/07 06:27:11;;;;;;;10.63;5.40;;;;;;;;;;5041323;28;20064;-79
2022/03/07 06:29:36;;;;;;;9.20;5.22;;;;;;;;;;5026862;28;20021;-81
2022/03/07 06:32:01;;;;;;;9.13;5.00;;;;;;;;;;5031619;28;20021;-81
2022/03/07 06:34:27;;;;;;;7.30;4.68;;;;;;;;;;5050411;28;20021;-81
2022/03/07 06:39:27;;;;;;;8.48;4.70;;;;;;;;;;5023194;28;20044;-83
2022/03/07 06:41:56;;;;;;;8.48;4.85;;;;;;;;;;5018189;28;20010;-82
2022/03/07 06:44:21;;;;;;;;;;;;;;;;;;5036693;28;20025;-83
2022/03/07 06:46:47;;;;;;;10.02;4.53;;;;;;;;;;5027366;28;19913;-81
2022/03/07 06:49:13;;;;;;;9.60;4.88;;;;;;;;;;5018074;28;20025;-84
2022/03/07 06:51:38;;;;;;;11.63;5.03;;;;;;;;;;5021890;28;20021;-84
2022/03/07 06:54:05;;;;;;;11.57;5.03;;;;;;;;;;5079378;23;20063;-83
2022/03/07 07:01:40;;;;;;;8.80;4.47;;;;;;;;;;5370573;23;20053;-75
2022/03/07 07:04:05;;;;;;;7.50;4.20;;;;;;;;;;5016950;28;20040;-75
2022/03/07 07:06:31;;;;;;;10.43;4.80;;;;;;;;;;5016529;28;20061;-74
2022/03/07 07:08:56;;;;;;;9.00;4.78;;;;;;;;;;4998467;28;20489;-74
2022/03/07 07:11:21;;;;;;;20.35;5.65;;;;;;;;;;5015789;28;20018;-75
2022/03/07 07:13:46;;;;;;;9.17;4.10;;;;;;;;;;4997812;28;20014;-75
2022/03/07 07:16:12;;;;;;;7.72;4.10;;;;;;;;;;5014754;28;20036;-75
2022/03/07 07:18:37;;;;;;;10.85;4.32;;;;;;;;;;5016097;28;20069;-78
2022/03/07 07:21:03;;;;;;;11.45;4.57;;;;;;;;;;5015456;28;20110;-77
2022/03/07 07:23:28;;;;;;;10.65;4.78;;;;;;;;;;4998316;28;20033;-79
2022/03/07 07:25:54;;;;;;;14.57;4.82;;;;;;;;;;5017149;28;20064;-79
2022/03/07 07:28:19;;;;;;;9.88;4.55;;;;;;;;;;5032518;28;20033;-80
2022/03/07 07:30:46;;;;;;;9.38;4.47;;;;;;;;;;5020999;28;20472;-78
2022/03/07 07:33:11;;;;;;;9.45;4.50;;;;;;;;;;5027057;28;20054;-80
2022/03/07 07:35:36;;;;;;;8.05;4.38;;;;;;;;;;5020330;28;20041;-79
2022/03/07 07:38:03;;;;;;;10.85;3.90;;;;;;;;;;5000382;28;20496;-81
2022/03/07 07:40:28;;;;;;;12.63;4.63;;;;;;;;;;5005815;28;20473;-83
2022/03/07 07:42:53;;;;;;;9.50;3.57;;;;;;;;;;5015951;28;20033;-82
2022/03/07 07:45:18;;;;;;;14.10;4.13;;;;;;;;;;5007221;28;20401;-81
2022/03/07 07:47:44;;;;;;;9.57;4.23;;;;;;;;;;5003699;28;20080;-80
2022/03/07 07:50:09;;;;;;;6.00;3.35;;;;;;;;;;5029016;28;20013;-79
2022/03/07 07:52:35;;;;;;;7.18;2.97;;;;;;;;;;5019268;28;20024;-79
2022/03/07 07:55:02;;;;;;;10.32;3.67;;;;;;;;;;5011406;28;20022;-77
2022/03/07 07:57:27;;;;;;;8.55;3.55;;;;;;;;;;4997807;28;20018;-78
2022/03/07 07:59:53;;;;;;;12.70;4.45;;;;;;;;;;4997018;28;20474;-77
2022/03/07 08:02:18;;;;;;;10.35;3.30;;;;;;;;;;5007275;28;20049;-79
2022/03/07 08:04:43;;;;;;;9.40;3.20;;;;;;;;;;5023650;28;20029;-78
2022/03/07 08:07:08;;;;;;;6.57;3.40;;;;;;;;;;5014056;28;20018;-77
2022/03/07 08:09:35;;;;;;;6.15;2.55;;;;;;;;;;4996208;28;20398;-78
2022/03/07 08:12:00;;;;;;;6.88;2.70;;;;;;;;;;5015832;28;20487;-79
2022/03/07 08:14:25;;;;;;;7.95;2.78;;;;;;;;;;5032453;28;20014;-79
2022/03/07 08:16:50;;;;;;;8.73;3.03;;;;;;;;;;5033845;28;20022;-80
2022/03/07 08:19:16;;;;;;;5.65;2.45;;;;;;;;;;5027590;28;20018;-78
2022/03/07 08:21:41;;;;;;;7.18;2.72;;;;;;;;;;5004455;28;20516;-80
2022/03/07 08:24:07;;;;;;;5.55;1.85;;;;;;;;;;5026969;28;20022;-82
2022/03/07 08:26:32;;;;;;;6.35;2.17;;;;;;;;;;5019925;28;20030;-81
2022/03/07 08:28:58;;;;;;;6.72;2.78;;;;;;;;;;5049421;28;20495;-81
2022/03/07 08:31:23;;;;;;;4.65;2.08;;;;;;;;;;5033255;28;20021;-82
2022/03/07 08:33:48;;;;;;;5.72;2.10;;;;;;;;;;5038062;28;20017;-82
2022/03/07 08:36:13;;;;;;;6.45;2.33;;;;;;;;;;5013812;28;20046;-82
2022/03/07 08:38:39;;;;;;;5.75;1.80;;;;;;;;;;5030758;28;20028;-81
2022/03/07 08:41:04;;;;;;;3.88;1.50;;;;;;;;;;5043907;28;20021;-81
2022/03/07 08:43:29;;;;;;;4.80;2.03;;;;;;;;;;5030375;28;20022;-81
2022/03/07 08:45:55;;;;;;;4.40;1.90;;;;;;;;;;5034887;28;20107;-81
2022/03/07 08:48:20;;;;;;;7.57;1.80;;;;;;;;;;5025773;28;20033;-80
2022/03/07 08:50:48;;;;;;;5.70;2.30;;;;;;;;;;5043734;28;20032;-81
2022/03/07 08:53:14;;;;;;;8.77;2.00;;;;;;;;;;5047467;28;20052;-80
2022/03/07 08:55:39;;;;;;;3.65;2.00;;;;;;;;;;5022963;28;20027;-82
2022/03/07 08:58:04;;;;;;;4.05;2.00;;;;;;;;;;5011287;28;20018;-81
2022/03/07 09:00:30;;;;;;;6.63;2.50;;;;;;;;;;5035672;28;20073;-82
2022/03/07 09:02:55;;;;;;;6.05;2.60;;;;;;;;;;5041322;28;20021;-82
2022/03/07 09:05:21;;;;;;;7.15;2.47;;;;;;;;;;5037265;28;20022;-82
2022/03/07 09:07:46;;;;;;;7.50;3.33;;;;;;;;;;5006589;28;20050;-82
2022/03/07 09:10:11;;;;;;;4.93;2.30;;;;;;;;;;5010093;28;20057;-81
2022/03/07 09:12:37;;;;;;;7.95;2.70;;;;;;;;;;5009782;28;20018;-81
2022/03/07 09:15:03;;;;;;;5.90;2.70;;;;;;;;;;5027268;28;20044;-81
2022/03/07 09:17:29;;;;;;;9.15;2.90;;;;;;;;;;5041425;28;20083;-81
2022/03/07 09:19:58;;;;;;;16.60;3.05;;;;;;;;;;5027824;28;20050;-79
2022/03/07 09:22:23;;;;;;;;;;;;;;;;;;5012015;28;20022;-81
2022/03/07 09:24:48;;;;;;;7.82;3.10;;;;;;;;;;5030229;28;19913;-81
2022/03/07 09:27:13;;;;;;;6.68;2.60;;;;;;;;;;5007141;28;20260;-82
2022/03/07 09:29:39;;;;;;;5.53;2.80;;;;;;;;;;5033071;28;20029;-82
2022/03/07 09:32:05;;;;;;;6.50;2.72;;;;;;;;;;5020485;28;20033;-82
2022/03/07 09:34:32;;;;;;;7.05;3.10;;;;;;;;;;5023010;28;20001;-82
2022/03/07 09:36:58;;;;;;;4.82;2.30;;;;;;;;;;5037224;28;20017;-81
2022/03/07 09:39:23;;;;;;;6.43;2.70;;;;;;;;;;5032080;28;20018;-81
2022/03/07 09:41:48;;;;;;;3.90;2.45;;;;;;;;;;5035110;28;20029;-81
2022/03/07 09:44:14;;;;;;;7.43;3.03;;;;;;;;;;5008764;28;20112;-83
2022/03/07 09:46:40;;;;;;;6.75;2.83;;;;;;;;;;5021301;28;20056;-85
2022/03/07 09:49:05;;;;;;;5.50;2.80;;;;;;;;;;5038862;28;20037;-82
2022/03/07 09:51:34;;;;;;;5.40;2.40;;;;;;;;;;5065769;22;20041;-82
2022/03/07 09:53:59;;;;;;;6.45;3.05;;;;;;;;;;5083434;28;20019;-83
2022/03/07 09:56:27;;;;;;;8.95;3.13;;;;;;;;;;5095694;28;20048;-83
2022/03/07 09:58:53;;;;;;;7.18;3.10;;;;;;;;;;5091736;28;20024;-83
2022/03/07 10:01:19;;;;;;;17.75;3.10;;;;;;;;;;5072293;28;20375;-83
2022/03/07 10:03:44;;;;;;;6.75;2.50;;;;;;;;;;5079462;28;20024;-83
2022/03/07 10:06:11;;;;;;;11.18;5.28;;;;;;;;;;5062474;28;20036;-81
2022/03/07 10:08:36;;;;;;;7.97;2.95;;;;;;;;;;5069742;23;20044;-82
2022/03/07 10:11:07;;;;;;;9.20;3.47;;;;;;;;;;5190708;23;20065;-82
2022/03/07 10:13:33;;;;;;;9.48;3.58;;;;;;;;;;5036665;28;20106;-87
2022/03/07 10:16:00;;;;;;;8.15;3.30;;;;;;;;;;5033904;28;20026;-83
2022/03/07 10:18:25;;;;;;;4.97;2.58;;;;;;;;;;5008583;28;20142;-86
2022/03/07 10:20:52;;;;;;;6.35;2.80;;;;;;;;;;5032117;28;20053;-87
2022/03/07 10:23:17;;;;;;;6.28;2.75;;;;;;;;;;5017658;28;20037;-89
2022/03/07 10:25:44;;;;;;;8.20;2.88;;;;;;;;;;5009985;28;20477;-88
2022/03/07 10:28:09;;;;;;;7.53;2.78;;;;;;;;;;4996280;28;20370;-88
2022/03/07 10:30:36;;;;;;;6.20;2.55;;;;;;;;;;5023669;28;20120;-86
2022/03/07 10:33:12;;;;;;;5.68;2.50;;;;;;;;;;5015015;28;20032;-85
2022/03/07 10:35:37;;;;;;;5.75;2.50;;;;;;;;;;5020398;28;20020;-84
2022/03/07 10:38:03;;;;;;;8.07;2.87;;;;;;;;;;5014984;28;20030;-82
2022/03/07 10:40:29;;;;;;;6.50;3.03;;;;;;;;;;5021785;28;20248;-83
2022/03/07 10:42:55;;;;;;;5.05;2.47;;;;;;;;;;5010968;28;20013;-84
2022/03/07 10:45:22;;;;;;;6.82;3.28;;;;;;;;;;4998980;28;20440;-84
2022/03/07 10:47:54;;;;;;;5.25;2.20;;;;;;;;;;5008940;28;20041;-85
2022/03/07 10:50:21;;;;;;;7.03;3.35;;;;;;;;;;4989794;28;20030;-82
2022/03/07 10:52:46;;;;;;;15.15;3.53;;;;;;;;;;5036205;28;20022;-83
2022/03/07 10:55:12;;;;;;;4.45;2.70;;;;;;;;;;5040348;28;20088;-84
2022/03/07 10:57:38;;;;;;;9.43;3.17;;;;;;;;;;5003489;28;20029;-87
2022/03/07 11:00:05;;;;;;;9.02;3.15;;;;;;;;;;5006876;28;20030;-88
2022/03/07 11:02:36;;;;;;;7.72;3.20;;;;;;;;;;5007971;28;20048;-89
2022/03/07 11:05:02;;;;;;;6.38;2.78;;;;;;;;;;5016302;28;20035;-89
2022/03/07 11:07:27;;;;;;;7.80;2.72;;;;;;;;;;5027317;28;20370;-84
2022/03/07 11:09:53;;;;;;;6.97;3.10;;;;;;;;;;5019572;28;20037;-87
2022/03/07 11:12:19;;;;;;;5.82;2.85;;;;;;;;;;5015964;28;20021;-85
2022/03/07 11:14:44;;;;;;;4.05;2.58;;;;;;;;;;5018190;28;20025;-84
2022/03/07 11:17:12;;;;;;;6.10;2.70;;;;;;;;;;5011346;28;20104;-83
2022/03/07 11:19:37;;;;;;;5.13;2.08;;;;;;;;;;5017532;28;20017;-83
2022/03/07 11:22:03;;;;;;;12.85;3.10;;;;;;;;;;5023471;28;20026;-84
2022/03/07 11:24:30;;;;;;;4.70;2.38;;;;;;;;;;5013368;28;20021;-84
2022/03/07 11:26:56;;;;;;;6.75;2.83;;;;;;;;;;5009528;28;20176;-85
2022/03/07 11:29:31;;;;;;;5.70;3.20;;;;;;;;;;5014939;28;20092;-85
2022/03/07 11:32:00;;;;;;;6.20;3.38;;;;;;;;;;5024081;28;20099;-85
2022/03/07 11:34:25;;;;;;;6.65;3.28;;;;;;;;;;5023803;28;20022;-84
2022/03/07 11:36:50;;;;;;;9.23;3.43;;;;;;;;;;5017683;28;20334;-85
2022/03/07 11:39:27;;;;;;;5.33;2.77;;;;;;;;;;5016485;28;20267;-84
2022/03/07 11:41:53;;;;;;;6.55;3.10;;;;;;;;;;5021974;28;20037;-84
2022/03/07 11:44:21;;;;;;;11.32;3.83;;;;;;;;;;4997842;28;20107;-84
2022/03/07 11:46:51;;;;;;;;;;;;;;;;;;5012827;28;20021;-84
2022/03/07 11:49:26;;;;;;;7.22;3.03;;;;;;;;;;5005265;28;19905;-82
2022/03/07 11:51:59;;;;;;;8.35;3.47;;;;;;;;;;5011025;28;20014;-82
2022/03/07 11:54:25;;;;;;;8.77;3.40;;;;;;;;;;5025085;28;20025;-84
2022/03/07 11:56:50;;;;;;;8.40;3.22;;;;;;;;;;4998557;28;20072;-87
2022/03/07 11:59:15;;;;;;;6.60;2.90;;;;;;;;;;5001987;28;20095;-85
2022/03/07 12:01:50;;;;;;;9.95;3.25;;;;;;;;;;5022494;28;20022;-83
2022/03/07 12:04:16;;;;;;;6.18;2.35;;;;;;;;;;5003935;28;20393;-83
2022/03/07 12:06:41;;;;;;;7.32;2.33;;;;;;;;;;5007667;28;20028;-82
2022/03/07 12:09:07;;;;;;;6.18;2.30;;;;;;;;;;5014574;28;20022;-84
2022/03/07 12:11:34;;;;;;;6.93;2.80;;;;;;;;;;5014385;23;20050;-82
2022/03/07 12:14:04;;;;;;;4.75;2.50;;;;;;;;;;5015974;28;20100;-81
2022/03/07 12:16:29;;;;;;;9.48;3.38;;;;;;;;;;5011786;28;20144;-82
2022/03/07 12:19:04;;;;;;;7.13;2.87;;;;;;;;;;4994626;28;20437;-83
2022/03/07 12:21:29;;;;;;;7.15;3.45;;;;;;;;;;4992044;28;20260;-82
2022/03/07 12:23:57;;;;;;;8.27;3.47;;;;;;;;;;5011942;28;20379;-87
2022/03/07 12:26:23;;;;;;;20.75;8.48;;;;;;;;;;5012439;28;20263;-87
2022/03/07 12:28:48;;;;;;;8.90;3.35;;;;;;;;;;4995026;28;20030;-83
2022/03/07 12:31:13;;;;;;;5.50;3.00;;;;;;;;;;4990677;28;20027;-88
2022/03/07 12:33:41;;;;;;;5.20;3.05;;;;;;;;;;4985449;28;20307;-86
2022/03/07 12:36:09;;;;;;;6.15;2.92;;;;;;;;;;4980317;28;20019;-86
2022/03/07 12:38:36;;;;;;;5.95;2.88;;;;;;;;;;5010656;28;20021;-85
2022/03/07 12:41:02;;;;;;;7.72;3.15;;;;;;;;;;4993819;28;20033;-87
2022/03/07 12:43:28;;;;;;;6.00;3.20;;;;;;;;;;4993853;28;20013;-88
2022/03/07 12:45:57;;;;;;;7.88;2.90;;;;;;;;;;4994318;28;20024;-89
2022/03/07 12:48:22;;;;;;;;;;;;;;;;;;4991474;28;20113;-86
2022/03/07 12:50:47;;;;;;;7.90;3.20;;;;;;;;;;4987948;28;19992;-86
2022/03/07 12:53:13;;;;;;;5.00;2.90;;;;;;;;;;4975623;28;20117;-86
2022/03/07 12:55:38;;;;;;;6.45;2.80;;;;;;;;;;5012112;28;20251;-86
2022/03/07 12:58:03;;;;;;;9.23;3.08;;;;;;;;;;4990767;28;20540;-86
2022/03/07 13:00:29;;;;;;;6.38;2.78;;;;;;;;;;5010888;28;20041;-82
2022/03/07 13:02:58;;;;;;;9.18;2.95;;;;;;;;;;5029721;28;20081;-82
2022/03/07 13:05:23;;;;;;;13.27;3.30;;;;;;;;;;5012943;28;20101;-86
2022/03/07 13:07:55;;;;;;;5.72;2.40;;;;;;;;;;4971060;28;20062;-85
2022/03/07 13:10:22;;;;;;;6.30;2.80;;;;;;;;;;4984511;28;20030;-84
2022/03/07 13:12:47;;;;;;;5.57;2.60;;;;;;;;;;4993032;28;20018;-85
2022/03/07 13:15:13;;;;;;;7.78;2.90;;;;;;;;;;4991628;28;20023;-84
2022/03/07 13:17:38;;;;;;;6.22;2.97;;;;;;;;;;5008792;28;20025;-85
2022/03/07 13:20:04;;;;;;;10.77;2.80;;;;;;;;;;4993861;28;20026;-89
2022/03/07 13:22:29;;;;;;;10.25;3.10;;;;;;;;;;4980922;28;20121;-89
2022/03/07 13:24:56;;;;;;;6.03;2.90;;;;;;;;;;4992160;28;20053;-89
2022/03/07 13:27:22;;;;;;;7.15;2.70;;;;;;;;;;4992761;28;20030;-88
2022/03/07 13:29:48;;;;;;;11.50;4.72;;;;;;;;;;4995066;28;20117;-88
2022/03/07 13:32:17;;;;;;;6.30;2.75;;;;;;;;;;5011595;28;20045;-89
2022/03/07 13:34:44;;;;;;;7.13;3.20;;;;;;;;;;5015679;28;20014;-89
2022/03/07 13:37:11;;;;;;;8.43;2.75;;;;;;;;;;4996059;28;20014;-89
2022/03/07 13:39:37;;;;;;;5.82;2.22;;;;;;;;;;4994808;28;20090;-83
2022/03/07 13:42:04;;;;;;;5.90;2.75;;;;;;;;;;5095538;23;20032;-83
2022/03/07 13:44:31;;;;;;;6.40;2.83;;;;;;;;;;5165401;23;20034;-82
2022/03/07 13:47:02;;;;;;;4.90;2.33;;;;;;;;;;5023864;28;20010;-83
2022/03/07 13:49:44;;;;;;;5.75;2.70;;;;;;;;;;5016861;28;20021;-86
2022/03/07 13:52:29;;;;;;;6.88;2.13;;;;;;;;;;4979705;28;20030;-85
2022/03/07 13:54:56;;;;;;;11.52;5.60;;;;;;;;;;4996261;28;20101;-85
2022/03/07 13:57:22;;;;;;;7.10;2.92;;;;;;;;;;4997240;28;20015;-85
2022/03/07 13:59:51;;;;;;;6.75;2.58;;;;;;;;;;5000979;28;20097;-85
2022/03/07 14:02:17;;;;;;;5.05;1.90;;;;;;;;;;4987735;28;20116;-85
2022/03/07 14:04:51;;;;;;;5.25;2.28;;;;;;;;;;5000581;28;20157;-84
2022/03/07 14:07:19;;;;;;;5.60;2.63;;;;;;;;;;4977060;28;20018;-84
2022/03/07 14:10:10;;;;;;;4.57;2.43;;;;;;;;;;4973697;28;20023;-85
2022/03/07 14:12:36;;;;;;;6.20;2.22;;;;;;;;;;4983789;28;20034;-84
2022/03/07 14:15:06;;;;;;;5.63;2.50;;;;;;;;;;4996181;28;20025;-84
2022/03/07 14:17:32;;;;;;;6.68;2.78;;;;;;;;;;4973385;28;20025;-85
2022/03/07 14:19:57;;;;;;;5.10;2.45;;;;;;;;;;4965381;28;20026;-84
2022/03/07 14:22:24;;;;;;;5.20;2.42;;;;;;;;;;5005131;28;20072;-84
2022/03/07 14:24:50;;;;;;;6.40;2.38;;;;;;;;;;4981797;28;20165;-85
2022/03/07 14:27:15;;;;;;;5.90;2.60;;;;;;;;;;4978439;28;20493;-84
2022/03/07 14:29:43;;;;;;;6.20;3.03;;;;;;;;;;4984207;28;20449;-85
2022/03/07 14:32:08;;;;;;;5.38;3.33;;;;;;;;;;4976139;28;20110;-86
2022/03/07 14:34:33;;;;;;;9.15;3.90;;;;;;;;;;4977106;28;20520;-85
2022/03/07 14:36:58;;;;;;;7.40;3.80;;;;;;;;;;4977202;28;20025;-84
2022/03/07 14:39:24;;;;;;;5.67;2.73;;;;;;;;;;4980421;28;20588;-86
2022/03/07 14:41:49;;;;;;;7.85;2.97;;;;;;;;;;4988357;28;20340;-84
2022/03/07 14:44:14;;;;;;;5.53;2.75;;;;;;;;;;4982240;28;20034;-83
2022/03/07 14:46:40;;;;;;;10.27;3.58;;;;;;;;;;5003370;28;20098;-85
2022/03/07 14:49:05;;;;;;;6.50;3.10;;;;;;;;;;4996375;28;20053;-86
2022/03/07 14:51:31;;;;;;;8.90;2.93;;;;;;;;;;4983565;28;20751;-85
2022/03/07 14:53:56;;;;;;;9.73;2.92;;;;;;;;;;4973322;28;20693;-85
2022/03/07 14:56:21;;;;;;;5.97;2.83;;;;;;;;;;4997281;28;20014;-87
2022/03/07 14:58:47;;;;;;;10.52;3.83;;;;;;;;;;4982322;28;20026;-87
2022/03/07 15:01:12;;;;;;;8.15;2.83;;;;;;;;;;4994037;28;20375;-86
2022/03/07 15:03:37;;;;;;;6.43;2.70;;;;;;;;;;4993217;28;20501;-84
2022/03/07 15:06:03;;;;;;;5.13;2.70;;;;;;;;;;4992797;28;20022;-85
2022/03/07 15:08:28;;;;;;;6.03;2.38;;;;;;;;;;4988839;28;20029;-85
2022/03/07 15:10:53;;;;;;;5.70;2.50;;;;;;;;;;4998918;28;20030;-87
2022/03/07 15:13:18;;;;;;;6.93;2.75;;;;;;;;;;5010617;28;20014;-87
2022/03/07 15:15:44;;;;;;;6.32;3.00;;;;;;;;;;4977745;28;20010;-88
2022/03/07 15:18:09;;;;;;;7.25;3.05;;;;;;;;;;4987396;28;20477;-90
2022/03/07 15:20:34;;;;;;;7.85;2.97;;;;;;;;;;5015363;28;20026;-90
2022/03/07 15:22:59;;;;;;;4.30;2.40;;;;;;;;;;4975536;28;20036;-90
2022/03/07 15:25:25;;;;;;;24.15;4.65;;;;;;;;;;4976729;28;20022;-90
2022/03/07 15:27:53;;;;;;;5.60;2.67;;;;;;;;;;4992621;28;20032;-88
2022/03/07 15:32:53;;;;;;;7.78;3.25;;;;;;;;;;5379058;22;20041;-87
2022/03/07 15:37:56;;;;;;;4.93;2.40;;;;;;;;;;5631896;23;20041;-84
2022/03/07 15:48:08;;;;;;;9.95;2.90;;;;;;;;;;5119046;23;19913;-84
2022/03/07 15:50:37;;;;;;;4.80;2.50;;;;;;;;;;5026856;28;20013;-83
2022/03/07 15:55:42;;;;;;;9.75;3.47;;;;;;;;;;5779075;22;20046;-81
2022/03/07 15:58:33;;;;;;;8.48;3.13;;;;;;;;;;5019422;28;20006;-83
2022/03/07 16:00:58;;;;;;;5.22;2.30;;;;;;;;;;5289535;22;20033;-84
2022/03/07 16:03:26;;;;;;;10.20;2.80;;;;;;;;;;5575682;23;20044;-83
2022/03/07 16:11:04;;;;;;;8.30;2.50;;;;;;;;;;5990769;22;20047;-83
2022/03/07 16:16:07;;;;;;;15.93;3.70;;;;;;;;;;5948456;23;20038;-83
2022/03/07 16:18:37;;;;;;;7.07;2.85;;;;;;;;;;5018173;28;20022;-84
2022/03/07 16:21:10;;;;;;;7.07;3.20;;;;;;;;;;5029964;28;20090;-83
2022/03/07 16:23:40;;;;;;;10.25;4.10;;;;;;;;;;5038788;28;20021;-81
2022/03/07 16:26:06;;;;;;;4.20;2.13;;;;;;;;;;5637326;23;20087;-83
2022/03/07 16:28:37;;;;;;;8.38;2.42;;;;;;;;;;5725541;22;20016;-80
2022/03/07 16:31:02;;;;;;;6.78;2.80;;;;;;;;;;5613228;23;20029;-82
2022/03/07 16:51:40;;;;;;;12.57;2.88;;;;;;;;;;5399598;23;20054;-84
2022/03/07 16:54:09;;;;;;;5.38;2.58;;;;;;;;;;5018694;23;20042;-85
2022/03/07 16:59:21;;;;;;;9.07;3.13;;;;;;;;;;6136650;23;20054;31
2022/03/07 17:14:51;;;;;;;6.05;3.10;;;;;;;;;;6071258;23;20020;-80
2022/03/07 17:17:20;;;;;;;9.50;2.78;;;;;;;;;;5046727;23;20050;-83
2022/03/07 17:19:47;;;;;;;6.88;2.90;;;;;;;;;;5035048;23;20065;-84
2022/03/07 17:24:50;;;;;;;6.65;3.25;;;;;;;;;;5222050;22;20066;-84
2022/03/07 17:27:16;;;;;;;5.95;2.88;;;;;;;;;;5021061;28;20005;-82
2022/03/07 17:29:41;;;;;;;8.10;3.10;;;;;;;;;;5019885;28;20022;-83
2022/03/07 17:32:07;;;;;;;6.25;2.65;;;;;;;;;;5037384;28;20018;-82
2022/03/07 17:34:32;;;;;;;6.93;3.55;;;;;;;;;;5038436;28;20032;-82
2022/03/07 17:37:01;;;;;;;7.45;3.58;;;;;;;;;;5040049;28;19994;-83
2022/03/07 17:39:26;;;;;;;5.82;3.08;;;;;;;;;;5290819;23;20042;-82
2022/03/07 17:44:25;;;;;;;9.52;3.58;;;;;;;;;;5054279;28;20060;-84
2022/03/07 17:46:56;;;;;;;9.10;3.67;;;;;;;;;;5060080;28;20192;-84
2022/03/07 17:54:41;;;;;;;10.15;3.65;;;;;;;;;;5650704;23;20086;-84